createdAt,value
2023-05-06T00:01:53.619Z,8.82
2023-05-06T00:05:56.726Z,8.63
2023-05-06T00:10:01.962Z,9.02
2023-05-06T00:14:05.379Z,8.55
2023-05-06T00:18:10.860Z,9.15
2023-05-06T00:22:13.893Z,9.40
2023-05-06T00:26:20.193Z,10.55
2023-05-06T00:30:25.724Z,10.80
2023-05-06T00:34:30.159Z,10.52
2023-05-06T00:38:34.788Z,9.50
2023-05-06T00:42:37.825Z,9.90
2023-05-06T00:46:45.342Z,10.38
2023-05-06T00:50:52.692Z,10.50
2023-05-06T00:54:58.516Z,9.70
2023-05-06T00:59:06.484Z,10.35
2023-05-06T01:03:11.505Z,9.77
2023-05-06T01:07:25.520Z,9.85
2023-05-06T01:11:39.801Z,10.63
2023-05-06T01:15:47.295Z,10.45
2023-05-06T01:19:54.489Z,11.13
2023-05-06T01:24:00.528Z,10.93
2023-05-06T01:28:03.836Z,12.25
2023-05-06T01:32:22.220Z,11.90
2023-05-06T01:36:40.995Z,11.20
2023-05-06T01:40:48.986Z,10.88
2023-05-06T01:44:56.376Z,12.30
2023-05-06T01:49:03.881Z,12.02
2023-05-06T01:53:06.885Z,12.38
2023-05-06T01:57:12.873Z,12.48
2023-05-06T02:01:16.264Z,12.88
2023-05-06T02:05:22.451Z,12.23
2023-05-06T02:09:25.675Z,12.63
2023-05-06T02:13:35.032Z,13.00
2023-05-06T02:17:38.806Z,14.55
2023-05-06T02:21:43.442Z,13.52
2023-05-06T02:25:49.616Z,14.13
2023-05-06T02:29:56.581Z,14.20
2023-05-06T02:33:59.651Z,15.40
2023-05-06T02:38:02.699Z,15.52
2023-05-06T02:42:06.238Z,14.63
2023-05-06T02:46:11.515Z,14.65
2023-05-06T02:50:17.020Z,15.48
2023-05-06T02:54:20.144Z,15.50
2023-05-06T02:58:28.867Z,16.13
2023-05-06T03:02:34.587Z,17.77
2023-05-06T03:06:39.790Z,15.40
2023-05-06T03:10:42.857Z,15.73
2023-05-06T03:14:45.865Z,17.63
2023-05-06T03:18:50.344Z,15.80
2023-05-06T03:22:56.531Z,16.58
2023-05-06T03:26:59.806Z,16.77
2023-05-06T03:31:03.225Z,17.10
2023-05-06T03:35:13.589Z,16.80
2023-05-06T03:39:19.598Z,16.67
2023-05-06T03:43:25.118Z,16.25
2023-05-06T03:47:30.936Z,16.60
2023-05-06T03:51:37.634Z,16.95
2023-05-06T03:55:45.008Z,16.45
2023-05-06T03:59:52.896Z,16.65
2023-05-06T04:03:58.756Z,16.05
2023-05-06T04:08:06.406Z,14.55
2023-05-06T04:12:09.895Z,14.85
2023-05-06T04:16:13.294Z,15.90
2023-05-06T04:20:16.707Z,14.68
2023-05-06T04:24:21.574Z,15.05
2023-05-06T04:28:24.671Z,15.85
2023-05-06T04:32:28.233Z,16.13
2023-05-06T04:36:31.530Z,16.63
2023-05-06T04:40:36.671Z,16.50
2023-05-06T04:44:41.496Z,16.75
2023-05-06T04:48:44.854Z,16.63
2023-05-06T04:52:50.992Z,17.98
2023-05-06T04:56:57.155Z,16.75
2023-05-06T05:01:04.731Z,17.05
2023-05-06T05:05:11.513Z,17.85
2023-05-06T05:09:14.716Z,16.77
2023-05-06T05:13:27.699Z,17.17
2023-05-06T05:17:30.887Z,17.50
2023-05-06T05:21:36.705Z,17.77
2023-05-06T05:25:39.732Z,18.33
2023-05-06T05:29:49.768Z,18.83
2023-05-06T05:33:53.795Z,19.35
2023-05-06T05:37:56.854Z,20.15
2023-05-06T05:41:59.960Z,20.30
2023-05-06T05:46:06.149Z,20.55
2023-05-06T05:50:17.254Z,19.98
2023-05-06T05:54:22.519Z,20.15
2023-05-06T05:58:26.741Z,19.85
2023-05-06T06:02:33.003Z,18.50
2023-05-06T06:06:36.257Z,18.15
2023-05-06T06:10:39.750Z,18.17
2023-05-06T06:14:50.472Z,16.88
2023-05-06T06:18:55.376Z,16.83
2023-05-06T06:23:01.612Z,16.63
2023-05-06T06:27:07.607Z,16.70
2023-05-06T06:31:12.534Z,16.00
2023-05-06T06:35:17.198Z,16.55
2023-05-06T06:39:20.264Z,15.15
2023-05-06T06:43:25.071Z,14.55
2023-05-06T06:47:31.552Z,14.32
2023-05-06T06:51:36.079Z,12.68
2023-05-06T06:55:39.210Z,12.00
2023-05-06T06:59:42.462Z,12.00
2023-05-06T07:03:45.764Z,9.90
2023-05-06T07:07:57.567Z,10.70
2023-05-06T07:12:01.989Z,8.65
2023-05-06T07:16:05.421Z,7.70
2023-05-06T07:20:09.846Z,8.48
2023-05-06T07:24:14.490Z,7.60
2023-05-06T07:28:18.538Z,7.45
2023-05-06T07:32:21.684Z,8.65
2023-05-06T07:36:25.416Z,7.75
2023-05-06T07:40:35.366Z,7.28
2023-05-06T07:44:38.615Z,7.57
2023-05-06T07:48:43.574Z,8.07
2023-05-06T07:52:49.371Z,7.30
2023-05-06T07:56:54.858Z,7.18
2023-05-06T08:01:04.829Z,7.20
2023-05-06T08:05:09.329Z,7.20
2023-05-06T08:09:22.364Z,6.97
2023-05-06T08:13:30.803Z,7.90
2023-05-06T08:17:38.022Z,7.35
2023-05-06T08:21:41.304Z,6.32
2023-05-06T08:25:50.140Z,6.60
2023-05-06T08:30:00.719Z,6.95
2023-05-06T08:34:05.731Z,6.20
2023-05-06T08:38:08.793Z,5.35
2023-05-06T08:42:12.525Z,5.15
2023-05-06T08:46:19.966Z,5.35
2023-05-06T08:50:28.310Z,4.70
2023-05-06T08:54:35.549Z,4.82
2023-05-06T08:58:39.656Z,4.28
2023-05-06T09:02:46.696Z,3.85
2023-05-06T09:06:52.570Z,3.60
2023-05-06T09:10:58.460Z,2.75
2023-05-06T09:15:02.033Z,2.70
2023-05-06T09:19:06.594Z,2.53
2023-05-06T09:23:10.674Z,2.13
2023-05-06T09:27:15.297Z,2.40
2023-05-06T09:31:21.134Z,1.98
2023-05-06T09:35:28.605Z,2.10
2023-05-06T09:39:31.908Z,1.90
2023-05-06T09:43:42.702Z,2.22
2023-05-06T09:47:45.988Z,1.90
2023-05-06T09:51:51.813Z,1.80
2023-05-06T09:55:59.641Z,1.70
2023-05-06T10:00:07.237Z,1.77
2023-05-06T10:04:12.923Z,2.08
2023-05-06T10:08:20.170Z,2.03
2023-05-06T10:12:23.347Z,1.90
2023-05-06T10:16:29.872Z,1.95
2023-05-06T10:20:35.930Z,1.55
2023-05-06T10:24:50.268Z,1.60
2023-05-06T10:28:54.997Z,1.52
2023-05-06T10:33:05.455Z,1.52
2023-05-06T10:37:11.057Z,1.42
2023-05-06T10:41:16.803Z,1.55
2023-05-06T10:45:20.604Z,1.48
2023-05-06T10:49:23.665Z,1.60
2023-05-06T10:54:00.211Z,1.60
2023-05-06T10:58:16.545Z,1.40
2023-05-06T11:02:23.133Z,1.63
2023-05-06T11:06:42.078Z,1.60
2023-05-06T11:10:45.383Z,1.63
2023-05-06T11:14:49.969Z,1.30
2023-05-06T11:18:53.607Z,1.42
2023-05-06T11:22:56.859Z,1.73
2023-05-06T11:27:04.250Z,1.50
2023-05-06T11:31:09.449Z,1.60
2023-05-06T11:35:17.704Z,1.60
2023-05-06T11:39:21.120Z,1.30
2023-05-06T11:43:26.390Z,1.33
2023-05-06T11:47:30.931Z,1.48
2023-05-06T11:51:34.243Z,1.70
2023-05-06T11:55:37.730Z,1.40
2023-05-06T11:59:46.334Z,1.30
2023-05-06T12:03:51.818Z,1.88
2023-05-06T12:07:55.031Z,1.40
2023-05-06T12:11:58.493Z,1.40
2023-05-06T12:16:06.030Z,1.50
2023-05-06T12:20:17.040Z,1.45
2023-05-06T12:24:29.735Z,1.45
2023-05-06T12:28:37.535Z,1.35
2023-05-06T12:32:58.368Z,1.30
2023-05-06T12:37:05.576Z,1.40
2023-05-06T12:41:12.975Z,1.60
2023-05-06T12:45:16.310Z,1.50
2023-05-06T12:49:21.968Z,1.55
2023-05-06T12:53:36.593Z,1.67
2023-05-06T12:57:39.610Z,1.60
2023-05-06T13:01:42.648Z,1.90
2023-05-06T13:05:46.502Z,1.60
2023-05-06T13:09:50.919Z,1.40
2023-05-06T13:13:56.928Z,1.58
2023-05-06T13:18:00.358Z,1.80
2023-05-06T13:22:05.546Z,1.40
2023-05-06T13:26:11.758Z,1.33
2023-05-06T13:30:15.308Z,1.45
2023-05-06T13:34:21.393Z,1.35
2023-05-06T13:38:27.464Z,1.35
2023-05-06T13:42:34.122Z,1.30
2023-05-06T13:46:37.163Z,1.33
2023-05-06T13:50:42.714Z,1.30
2023-05-06T13:54:46.294Z,1.50
2023-05-06T13:58:51.059Z,1.38
2023-05-06T14:02:56.756Z,1.58
2023-05-06T14:07:02.688Z,1.50
2023-05-06T14:11:05.758Z,1.35
2023-05-06T14:15:14.126Z,1.40
2023-05-06T14:19:20.359Z,1.15
2023-05-06T14:23:24.977Z,1.30
2023-05-06T14:27:31.097Z,1.30
2023-05-06T14:31:35.570Z,1.30
2023-05-06T14:35:41.873Z,1.25
2023-05-06T14:39:44.867Z,1.40
2023-05-06T14:43:48.788Z,1.45
2023-05-06T14:47:53.201Z,1.25
2023-05-06T14:52:02.264Z,1.40
2023-05-06T14:56:11.595Z,1.30
2023-05-06T15:00:16.058Z,1.42
2023-05-06T15:04:26.031Z,1.33
2023-05-06T15:08:29.012Z,1.60
2023-05-06T15:12:32.343Z,1.63
2023-05-06T15:16:35.382Z,1.60
2023-05-06T15:20:40.854Z,1.35
2023-05-06T15:24:44.784Z,1.25
2023-05-06T15:28:50.854Z,1.20
2023-05-06T15:32:53.915Z,1.40
2023-05-06T15:37:04.584Z,1.55
2023-05-06T15:41:09.638Z,1.50
2023-05-06T15:45:14.165Z,1.80
2023-05-06T15:53:29.004Z,1.20
2023-05-06T15:57:34.629Z,1.17
2023-05-06T16:05:44.186Z,1.58
2023-05-06T16:09:48.606Z,1.50
2023-05-06T16:13:51.579Z,1.40
2023-05-06T16:17:54.619Z,1.50
2023-05-06T16:22:00.526Z,1.38
2023-05-06T16:26:05.995Z,1.40
2023-05-06T16:30:12.251Z,1.50
2023-05-06T16:34:18.613Z,1.60
2023-05-06T16:38:21.862Z,1.67
2023-05-06T16:42:26.407Z,1.63
2023-05-06T16:46:29.845Z,1.60
2023-05-06T16:50:35.853Z,1.70
2023-05-06T16:54:39.122Z,1.45
2023-05-06T16:58:46.253Z,1.77
2023-05-06T17:02:51.332Z,1.60
2023-05-06T17:07:00.567Z,1.58
2023-05-06T17:11:06.838Z,1.42
2023-05-06T17:15:12.841Z,1.58
2023-05-06T17:19:17.124Z,1.55
2023-05-06T17:23:23.956Z,1.38
2023-05-06T17:27:29.444Z,1.80
2023-05-06T17:31:37.829Z,1.60
2023-05-06T17:35:46.873Z,1.40
2023-05-06T17:39:49.897Z,1.67
2023-05-06T17:43:55.424Z,1.50
2023-05-06T17:48:04.419Z,1.67
2023-05-06T17:52:07.717Z,2.20
2023-05-06T17:56:14.002Z,2.50
2023-05-06T18:00:19.425Z,2.25
2023-05-06T18:04:23.829Z,1.98
2023-05-06T18:08:27.927Z,2.00
2023-05-06T18:12:34.430Z,1.98
2023-05-06T18:16:37.856Z,1.92
2023-05-06T18:20:42.346Z,2.33
2023-05-06T18:24:47.713Z,2.10
2023-05-06T18:28:50.810Z,2.30
2023-05-06T18:32:58.991Z,1.90
2023-05-06T18:37:06.239Z,2.08
2023-05-06T18:41:09.288Z,2.95
2023-05-06T18:45:17.801Z,2.83
2023-05-06T18:49:22.573Z,3.22
2023-05-06T18:53:29.439Z,2.50
2023-05-06T18:57:32.552Z,3.13
2023-05-06T19:01:38.557Z,2.20
2023-05-06T19:05:42.023Z,2.17
2023-05-06T19:09:46.488Z,2.50
2023-05-06T19:13:51.589Z,2.47
2023-05-06T19:17:56.803Z,2.30
2023-05-06T19:22:01.819Z,2.20
2023-05-06T19:26:10.010Z,2.28
2023-05-06T19:30:13.504Z,2.20
2023-05-06T19:34:17.840Z,2.47
2023-05-06T19:38:21.836Z,2.60
2023-05-06T19:42:26.973Z,2.30
2023-05-06T19:46:32.292Z,3.10
2023-05-06T19:50:35.678Z,2.90
2023-05-06T19:54:38.754Z,2.97
2023-05-06T19:58:43.166Z,3.17
2023-05-06T20:02:46.660Z,3.17
2023-05-06T20:06:55.745Z,3.03
2023-05-06T20:10:58.874Z,2.78
2023-05-06T20:15:03.705Z,3.05
2023-05-06T20:19:09.971Z,2.67
2023-05-06T20:23:12.990Z,2.72
2023-05-06T20:27:16.512Z,3.38
2023-05-06T20:31:21.473Z,3.17
2023-05-06T20:35:24.726Z,2.78
2023-05-06T20:39:27.804Z,3.20
2023-05-06T20:43:31.741Z,3.35
2023-05-06T20:47:36.695Z,3.08
2023-05-06T20:51:40.921Z,3.00
2023-05-06T20:55:43.993Z,3.63
2023-05-06T20:59:49.504Z,3.25
2023-05-06T21:03:53.989Z,3.97
2023-05-06T21:07:56.989Z,3.90
2023-05-06T21:12:07.050Z,3.22
2023-05-06T21:16:10.088Z,3.65
2023-05-06T21:20:19.315Z,3.38
2023-05-06T21:24:22.745Z,3.30
2023-05-06T21:28:28.468Z,3.63
2023-05-06T21:32:33.623Z,4.10
2023-05-06T21:36:38.596Z,3.85
2023-05-06T21:40:42.079Z,3.60
2023-05-06T21:44:46.318Z,3.75
2023-05-06T21:48:51.214Z,3.80
2023-05-06T21:52:58.263Z,4.45
2023-05-06T21:57:01.451Z,3.28
2023-05-06T22:01:05.854Z,3.45
2023-05-06T22:05:10.117Z,3.75
2023-05-06T22:09:17.302Z,4.55
2023-05-06T22:13:21.177Z,4.20
2023-05-06T22:17:26.928Z,3.80
2023-05-06T22:21:31.646Z,4.10
2023-05-06T22:25:36.347Z,3.58
2023-05-06T22:29:39.385Z,3.40
2023-05-06T22:33:44.089Z,4.38
2023-05-06T22:37:48.076Z,4.22
2023-05-06T22:41:52.476Z,3.78
2023-05-06T22:45:55.603Z,4.18
2023-05-06T22:49:58.611Z,4.07
2023-05-06T22:54:02.810Z,4.38
2023-05-06T22:58:08.156Z,4.25
2023-05-06T23:02:11.193Z,4.90
2023-05-06T23:06:14.312Z,4.70
2023-05-06T23:10:21.543Z,4.32
2023-05-06T23:14:26.279Z,4.70
2023-05-06T23:18:31.355Z,4.25
2023-05-06T23:22:37.616Z,4.10
2023-05-06T23:26:42.255Z,4.47
2023-05-06T23:30:47.385Z,4.30
2023-05-06T23:34:52.459Z,4.63
2023-05-06T23:38:58.282Z,4.65
2023-05-06T23:43:01.672Z,4.45
2023-05-06T23:47:11.462Z,4.63
2023-05-06T23:51:21.981Z,4.93
2023-05-06T23:55:30.843Z,4.43
2023-05-06T23:59:35.948Z,4.53
